Time;durP1;ratioP1;P1;durP2;ratioP2;P2;SDS_P1;SDS_P2;PMS_P1;PMS_P2;Temp;Humidity;BMP_temperature;BMP_pressure;BME280_temperature;BME280_humidity;BME280_pressure;Samples;Min_cycle;Max_cycle;Signal;HPM_P1;HPM_P2
2023/11/02 00:00:45;;;;;;;4.67;1.50;;;12.20;99.90;;;;;;5053166;28;20521;-71
2023/11/02 00:03:28;;;;;;;3.80;1.50;;;12.20;99.90;;;;;;5053062;28;20450;-71
2023/11/02 00:06:20;;;;;;;3.53;1.30;;;12.20;99.90;;;;;;5053402;28;20433;-71
2023/11/02 00:09:20;;;;;;;2.70;1.43;;;12.10;99.90;;;;;;5053440;28;20450;-71
2023/11/02 00:11:54;;;;;;;2.10;1.27;;;12.10;99.90;;;;;;5053179;28;20462;-71
2023/11/02 00:14:27;;;;;;;2.60;1.67;;;12.10;99.90;;;;;;5035255;28;20525;-71
2023/11/02 00:16:56;;;;;;;4.30;1.83;;;12.10;99.90;;;;;;5035235;28;20489;-71
2023/11/02 00:19:33;;;;;;;3.93;1.80;;;12.00;99.90;;;;;;5052910;28;20484;-71
2023/11/02 00:22:07;;;;;;;4.07;1.30;;;12.00;99.90;;;;;;5035119;28;20885;-70
2023/11/02 00:24:36;;;;;;;4.00;1.57;;;12.00;99.90;;;;;;5052946;28;20865;-71
2023/11/02 00:27:05;;;;;;;2.77;1.40;;;11.90;99.90;;;;;;5035124;28;20441;-70
2023/11/02 00:29:34;;;;;;;3.53;1.57;;;11.90;99.90;;;;;;5053706;28;20461;-71
2023/11/02 00:32:03;;;;;;;3.13;1.40;;;11.90;99.90;;;;;;5035907;28;20470;-71
2023/11/02 00:34:34;;;;;;;2.60;1.20;;;11.90;99.90;;;;;;5038828;28;20793;-71
2023/11/02 00:37:02;;;;;;;4.30;1.53;;;11.80;99.90;;;;;;5057251;28;20779;-71
2023/11/02 00:39:31;;;;;;;2.83;1.40;;;11.80;99.90;;;;;;5038705;28;20497;-71
2023/11/02 00:41:58;;;;;;;2.87;1.10;;;11.80;99.90;;;;;;5038714;28;20474;-71
2023/11/02 00:44:27;;;;;;;2.37;1.50;;;11.70;99.90;;;;;;5057103;28;20614;-71
2023/11/02 00:46:57;;;;;;;1.80;1.40;;;11.70;99.90;;;;;;5056743;28;20442;-71
2023/11/02 00:49:31;;;;;;;3.93;1.40;;;11.70;99.90;;;;;;5038581;28;20466;-71
2023/11/02 00:52:01;;;;;;;3.60;1.80;;;11.70;99.90;;;;;;5038421;28;21016;-71
2023/11/02 00:54:59;;;;;;;1.77;1.10;;;11.60;99.90;;;;;;5038613;28;20457;-71
2023/11/02 00:57:31;;;;;;;4.30;1.43;;;11.60;99.90;;;;;;5057564;28;20966;-71
2023/11/02 00:59:59;;;;;;;2.53;1.10;;;11.60;99.90;;;;;;5057127;28;20453;-71
2023/11/02 01:02:35;;;;;;;3.80;1.30;;;11.50;99.90;;;;;;5056835;28;20434;-71
2023/11/02 01:05:06;;;;;;;3.13;1.43;;;11.50;99.90;;;;;;5057283;28;20464;-71
2023/11/02 01:07:35;;;;;;;4.23;1.70;;;11.50;99.90;;;;;;5039395;28;20482;-71
2023/11/02 01:10:05;;;;;;;2.67;1.30;;;11.40;99.90;;;;;;5057203;28;20511;-71
2023/11/02 01:12:36;;;;;;;3.90;1.40;;;11.40;99.90;;;;;;5038971;28;20488;-71
2023/11/02 01:15:08;;;;;;;2.07;1.40;;;11.40;99.90;;;;;;5039154;28;21022;-71
2023/11/02 01:17:40;;;;;;;2.50;1.60;;;11.40;99.90;;;;;;5038415;28;20494;-71
2023/11/02 01:20:10;;;;;;;3.47;1.70;;;11.40;99.90;;;;;;5056402;28;20579;-71
2023/11/02 01:23:04;;;;;;;4.70;1.33;;;11.30;99.90;;;;;;5038271;28;20481;-71
2023/11/02 01:25:41;;;;;;;2.57;1.33;;;11.30;99.90;;;;;;5056614;28;20514;-71
2023/11/02 01:28:13;;;;;;;2.70;2.00;;;11.30;99.90;;;;;;5038267;28;20462;-71
2023/11/02 01:31:14;;;;;;;2.50;1.30;;;11.30;99.90;;;;;;5038165;28;20962;-71
2023/11/02 01:34:04;;;;;;;3.43;1.37;;;11.30;99.90;;;;;;5056275;28;20441;-71
2023/11/02 01:36:36;;;;;;;2.93;1.50;;;11.30;99.90;;;;;;5056315;28;20827;-71
2023/11/02 01:39:30;;;;;;;5.10;1.80;;;11.20;99.90;;;;;;5037986;28;20573;-71
2023/11/02 01:42:05;;;;;;;1.60;0.97;;;11.20;99.90;;;;;;5038438;28;20454;-71
2023/11/02 01:44:41;;;;;;;2.60;1.50;;;11.20;99.90;;;;;;5038021;28;20939;-71
2023/11/02 01:47:20;;;;;;;3.17;1.10;;;11.20;99.90;;;;;;5037936;28;20450;-72
2023/11/02 01:49:56;;;;;;;5.27;1.37;;;11.10;99.90;;;;;;5055806;28;20458;-71
2023/11/02 01:52:41;;;;;;;3.03;1.47;;;11.10;99.90;;;;;;5037635;28;20489;-71
2023/11/02 01:55:18;;;;;;;3.23;1.40;;;11.10;99.90;;;;;;5055660;28;20415;-71
2023/11/02 01:57:58;;;;;;;3.87;1.40;;;11.10;99.90;;;;;;5037661;28;20529;-71
2023/11/02 02:00:33;;;;;;;5.43;1.50;;;11.10;99.90;;;;;;5037881;28;20809;-71
2023/11/02 02:03:07;;;;;;;3.77;1.50;;;11.10;99.90;;;;;;5037863;28;20882;-71
2023/11/02 02:05:44;;;;;;;1.90;1.17;;;11.00;99.90;;;;;;5037914;28;20935;-71
2023/11/02 02:08:24;;;;;;;2.80;1.50;;;11.00;99.90;;;;;;5037542;28;20476;-71
2023/11/02 02:11:04;;;;;;;1.90;1.30;;;11.00;99.90;;;;;;5037633;28;20430;-71
2023/11/02 02:13:40;;;;;;;2.80;1.33;;;11.00;99.90;;;;;;5037871;28;20434;-71
2023/11/02 02:16:17;;;;;;;2.80;1.60;;;11.00;99.90;;;;;;5055835;28;20470;-71
2023/11/02 02:18:55;;;;;;;2.80;1.20;;;10.90;99.90;;;;;;5038588;28;20556;-71
2023/11/02 02:21:33;;;;;;;3.37;1.53;;;10.90;99.90;;;;;;5038996;28;20521;-71
2023/11/02 02:24:08;;;;;;;2.43;1.13;;;10.90;99.90;;;;;;5055848;28;20422;-71
2023/11/02 02:27:06;;;;;;;2.50;1.30;;;10.90;99.90;;;;;;5038127;28;20446;-71
2023/11/02 02:30:06;;;;;;;4.33;1.70;;;10.90;99.90;;;;;;5037957;28;20636;-71
2023/11/02 02:33:14;;;;;;;3.43;1.17;;;10.90;99.90;;;;;;5037998;28;20493;-71
2023/11/02 02:35:50;;;;;;;3.83;1.50;;;10.80;99.90;;;;;;5038426;28;20434;-71
2023/11/02 02:38:20;;;;;;;2.43;1.40;;;10.80;99.90;;;;;;5056427;28;20461;-71
2023/11/02 02:40:59;;;;;;;2.60;1.60;;;10.80;99.90;;;;;;5038255;28;20481;-71
2023/11/02 02:43:28;;;;;;;6.03;1.70;;;10.70;99.90;;;;;;5038347;28;20970;-71
2023/11/02 02:45:57;;;;;;;2.90;1.63;;;10.70;99.90;;;;;;5056451;28;20434;-71
2023/11/02 02:48:27;;;;;;;6.00;1.77;;;10.70;99.90;;;;;;5056396;28;20466;-71
2023/11/02 02:51:01;;;;;;;3.13;1.27;;;10.70;99.90;;;;;;5038013;28;20447;-71
2023/11/02 02:53:32;;;;;;;3.77;1.53;;;10.70;99.90;;;;;;5038836;28;20461;-71
2023/11/02 02:56:06;;;;;;;2.10;1.20;;;10.60;99.90;;;;;;5037569;28;20507;-71
2023/11/02 02:58:43;;;;;;;2.50;1.37;;;10.60;99.90;;;;;;5038503;28;20469;-70
2023/11/02 03:01:13;;;;;;;5.33;1.50;;;10.60;99.90;;;;;;5038429;28;20449;-71
2023/11/02 03:03:42;;;;;;;2.10;1.20;;;10.60;99.90;;;;;;5038237;28;20481;-71
2023/11/02 03:06:12;;;;;;;2.23;1.60;;;10.60;99.90;;;;;;5038172;28;20438;-71
2023/11/02 03:08:41;;;;;;;3.00;1.17;;;10.60;99.90;;;;;;5038321;28;20466;-71
2023/11/02 03:11:11;;;;;;;1.87;1.10;;;10.60;99.90;;;;;;5055229;28;20504;-71
2023/11/02 03:13:52;;;;;;;2.43;1.40;;;10.50;99.90;;;;;;5037134;28;20489;-71
2023/11/02 03:16:22;;;;;;;3.90;1.30;;;10.50;99.90;;;;;;5037483;28;20438;-71
2023/11/02 03:18:50;;;;;;;5.20;1.67;;;10.50;99.90;;;;;;5038269;28;20470;-71
2023/11/02 03:21:20;;;;;;;3.47;1.40;;;10.50;99.90;;;;;;5055387;28;20450;-71
2023/11/02 03:23:53;;;;;;;2.33;1.40;;;10.50;99.90;;;;;;5038461;28;20443;-71
2023/11/02 03:26:29;;;;;;;2.43;1.07;;;10.50;99.90;;;;;;5038101;28;20443;-71
2023/11/02 03:29:05;;;;;;;2.73;1.40;;;10.40;99.90;;;;;;5037969;28;20461;-70
2023/11/02 03:31:46;;;;;;;2.33;1.00;;;10.40;99.90;;;;;;5038006;28;20533;-71
2023/11/02 03:34:20;;;;;;;2.97;1.03;;;10.40;99.90;;;;;;5038312;28;20438;-71
2023/11/02 03:37:04;;;;;;;2.60;1.40;;;10.40;99.90;;;;;;5038021;28;20434;-71
2023/11/02 03:39:58;;;;;;;2.80;1.40;;;10.40;99.90;;;;;;5037649;28;20497;-71
2023/11/02 03:42:38;;;;;;;2.77;1.40;;;10.40;99.90;;;;;;5055866;28;20953;-71
2023/11/02 03:45:09;;;;;;;5.70;1.50;;;10.40;99.90;;;;;;5056345;28;20848;-71
2023/11/02 03:47:51;;;;;;;2.60;1.20;;;10.30;99.90;;;;;;5055520;28;20422;-71
2023/11/02 03:50:38;;;;;;;2.07;1.30;;;10.30;99.90;;;;;;5059456;28;20407;-71
2023/11/02 03:53:19;;;;;;;4.83;1.40;;;10.30;99.90;;;;;;5057185;28;20548;-71
2023/11/02 03:55:58;;;;;;;2.27;1.20;;;10.30;99.90;;;;;;5036153;28;20469;-71
2023/11/02 03:58:40;;;;;;;4.57;1.50;;;10.30;99.90;;;;;;5053851;28;20458;-71
2023/11/02 04:01:16;;;;;;;3.77;1.30;;;10.20;99.90;;;;;;5054289;28;20911;-71
2023/11/02 04:03:47;;;;;;;1.93;1.43;;;10.20;99.90;;;;;;5054463;28;20441;-71
2023/11/02 04:06:20;;;;;;;4.43;1.70;;;10.20;99.90;;;;;;5054698;28;20508;-71
2023/11/02 04:08:53;;;;;;;5.53;1.23;;;10.20;99.90;;;;;;5058663;28;20459;-71
2023/11/02 04:11:29;;;;;;;2.67;1.13;;;10.20;99.90;;;;;;5058528;28;20887;-71
2023/11/02 04:14:11;;;;;;;2.67;1.20;;;10.20;99.90;;;;;;5057980;28;20458;-71
2023/11/02 04:16:40;;;;;;;1.90;1.17;;;10.10;99.90;;;;;;5040646;28;20457;-71
2023/11/02 04:19:09;;;;;;;3.20;1.30;;;10.10;99.90;;;;;;5057802;28;20462;-71
2023/11/02 04:21:37;;;;;;;2.43;1.30;;;10.10;99.90;;;;;;5057992;28;20537;-71
2023/11/02 04:24:07;;;;;;;3.20;1.30;;;10.10;99.90;;;;;;5057596;28;20438;-71
2023/11/02 04:26:37;;;;;;;2.03;1.17;;;10.10;99.90;;;;;;5040054;28;20436;-71
2023/11/02 04:29:06;;;;;;;2.33;1.80;;;10.10;99.90;;;;;;5040479;28;20458;-71
2023/11/02 04:31:34;;;;;;;2.30;1.60;;;10.10;99.90;;;;;;5057621;28;20472;-71
2023/11/02 04:34:02;;;;;;;3.23;1.50;;;10.10;99.90;;;;;;5057513;28;20560;-71
2023/11/02 04:36:30;;;;;;;2.60;2.40;;;10.10;99.90;;;;;;5057828;28;20836;-71
2023/11/02 04:38:59;;;;;;;2.47;1.73;;;10.00;99.90;;;;;;5039466;28;20465;-71
2023/11/02 04:41:28;;;;;;;3.80;1.80;;;10.00;99.90;;;;;;5057766;28;20430;-71
2023/11/02 04:43:56;;;;;;;6.53;1.57;;;10.00;99.90;;;;;;5039391;28;20442;-71
2023/11/02 04:46:24;;;;;;;3.00;1.70;;;10.00;99.90;;;;;;5039495;28;20943;-71
2023/11/02 04:48:52;;;;;;;3.00;1.40;;;10.00;99.90;;;;;;5057151;28;20943;-71
2023/11/02 04:51:21;;;;;;;3.30;2.07;;;10.00;99.90;;;;;;5058084;28;21005;-71
2023/11/02 04:53:50;;;;;;;3.60;1.70;;;10.00;99.90;;;;;;5057038;28;20477;-71
2023/11/02 04:56:18;;;;;;;3.27;1.60;;;10.00;99.90;;;;;;5056653;28;20441;-71
2023/11/02 04:58:48;;;;;;;5.20;2.13;;;10.00;99.90;;;;;;5056723;28;20461;-71
2023/11/02 05:01:16;;;;;;;3.40;1.33;;;10.00;99.90;;;;;;5056895;28;20434;-71
2023/11/02 05:03:44;;;;;;;4.43;1.70;;;10.00;99.90;;;;;;5038953;28;20532;-71
2023/11/02 05:06:13;;;;;;;2.47;1.40;;;10.00;99.90;;;;;;5056641;28;20931;-71
2023/11/02 05:08:41;;;;;;;2.50;1.70;;;10.00;99.90;;;;;;5056654;28;20465;-71
2023/11/02 05:11:09;;;;;;;4.63;1.70;;;10.00;99.90;;;;;;5056827;28;20525;-71
2023/11/02 05:13:37;;;;;;;3.77;1.40;;;10.00;99.90;;;;;;5056936;28;20552;-71
2023/11/02 05:16:08;;;;;;;2.00;1.40;;;10.00;99.90;;;;;;5057092;28;20966;-71
2023/11/02 05:18:36;;;;;;;2.37;1.47;;;10.00;99.90;;;;;;5056032;28;20902;-71
2023/11/02 05:21:04;;;;;;;3.63;1.70;;;10.00;99.90;;;;;;5038558;28;20450;-70
2023/11/02 05:23:33;;;;;;;4.37;2.17;;;10.00;99.90;;;;;;5057103;28;20434;-71
2023/11/02 05:26:03;;;;;;;2.30;1.97;;;10.00;99.90;;;;;;5056810;28;20438;-71
2023/11/02 05:28:32;;;;;;;3.50;2.23;;;10.00;99.90;;;;;;5056349;28;20458;-71
2023/11/02 05:31:00;;;;;;;4.00;1.93;;;10.00;99.90;;;;;;5056706;28;20441;-71
2023/11/02 05:33:30;;;;;;;2.90;1.43;;;10.10;99.90;;;;;;5056736;28;20545;-71
2023/11/02 05:35:58;;;;;;;2.30;1.53;;;10.10;99.90;;;;;;5038575;28;20545;-71
2023/11/02 05:38:26;;;;;;;2.03;1.53;;;10.10;99.90;;;;;;5038348;28;20505;-71
2023/11/02 05:40:54;;;;;;;4.70;2.00;;;10.10;99.90;;;;;;5038325;28;20962;-71
2023/11/02 05:43:22;;;;;;;3.13;1.60;;;10.10;99.90;;;;;;5038303;28;20446;-71
2023/11/02 05:45:50;;;;;;;4.97;2.10;;;10.10;99.90;;;;;;5056000;28;20438;-71
2023/11/02 05:48:18;;;;;;;4.90;1.80;;;10.10;99.90;;;;;;5056319;28;20479;-71
2023/11/02 05:50:48;;;;;;;3.43;1.90;;;10.10;99.90;;;;;;5038046;28;20450;-71
2023/11/02 05:53:16;;;;;;;4.20;1.90;;;10.10;99.90;;;;;;5055986;28;20476;-71
2023/11/02 05:55:44;;;;;;;5.50;2.20;;;10.20;99.90;;;;;;5056093;28;20462;-71
2023/11/02 05:58:12;;;;;;;2.40;2.00;;;10.20;99.90;;;;;;5038699;28;20891;-71
2023/11/02 06:00:40;;;;;;;2.53;1.60;;;10.20;99.90;;;;;;5056258;28;20438;-71
2023/11/02 06:03:08;;;;;;;4.53;2.10;;;10.20;99.90;;;;;;5056067;28;20441;-71
2023/11/02 06:05:37;;;;;;;3.80;2.30;;;10.20;99.90;;;;;;5055951;28;20491;-71
2023/11/02 06:08:06;;;;;;;4.80;2.50;;;10.20;99.90;;;;;;5055546;28;20454;-70
2023/11/02 06:10:35;;;;;;;4.10;2.10;;;10.20;99.90;;;;;;5037798;28;20442;-71
2023/11/02 06:13:03;;;;;;;2.87;1.60;;;10.30;99.90;;;;;;5055770;28;20843;-71
2023/11/02 06:15:31;;;;;;;3.50;2.27;;;10.30;99.90;;;;;;5055536;28;20434;-71
2023/11/02 06:17:59;;;;;;;3.47;2.60;;;10.30;99.90;;;;;;5037751;28;20473;-71
2023/11/02 06:20:29;;;;;;;2.93;1.63;;;10.30;99.90;;;;;;5055515;28;20429;-70
2023/11/02 06:22:57;;;;;;;2.80;1.70;;;10.30;99.90;;;;;;5055138;28;20548;-71
2023/11/02 06:25:26;;;;;;;3.50;1.50;;;10.40;99.90;;;;;;5055359;28;20517;-71
2023/11/02 06:27:55;;;;;;;2.57;1.63;;;10.40;99.90;;;;;;5037385;28;20520;-71
2023/11/02 06:30:24;;;;;;;4.70;1.90;;;10.40;99.90;;;;;;5054561;28;20478;-71
2023/11/02 06:32:54;;;;;;;4.03;3.10;;;10.40;99.90;;;;;;5055932;28;20464;-71
2023/11/02 06:35:22;;;;;;;2.77;1.47;;;10.40;99.90;;;;;;5037292;28;20466;-71
2023/11/02 06:37:57;;;;;;;2.10;1.80;;;10.40;99.90;;;;;;5055343;28;20468;-71
2023/11/02 06:40:28;;;;;;;4.13;2.07;;;10.40;99.90;;;;;;5037683;28;20452;-71
2023/11/02 06:42:57;;;;;;;7.23;4.00;;;10.50;99.90;;;;;;5055645;28;20426;-71
2023/11/02 06:45:26;;;;;;;3.07;2.17;;;10.50;99.90;;;;;;5037151;28;20496;-71
2023/11/02 06:47:56;;;;;;;2.83;1.83;;;10.50;99.90;;;;;;5054977;28;20445;-71
2023/11/02 06:50:25;;;;;;;5.40;1.57;;;10.50;99.90;;;;;;5054896;28;20517;-71
2023/11/02 06:52:53;;;;;;;3.07;1.83;;;10.50;99.90;;;;;;5055260;28;20437;-71
2023/11/02 06:55:21;;;;;;;3.00;1.90;;;10.50;99.90;;;;;;5054733;28;20963;-71
2023/11/02 06:57:50;;;;;;;4.10;1.93;;;10.50;99.90;;;;;;5036974;28;20452;-71
2023/11/02 07:00:19;;;;;;;3.27;2.00;;;10.50;99.90;;;;;;5054910;28;20522;-71
2023/11/02 07:02:47;;;;;;;3.33;1.70;;;10.50;99.90;;;;;;5055040;28;20449;-71
2023/11/02 07:05:15;;;;;;;3.47;1.77;;;10.60;99.90;;;;;;5055049;28;20430;-71
2023/11/02 07:07:48;;;;;;;4.00;1.80;;;10.60;99.90;;;;;;5054940;28;20434;-71
2023/11/02 07:10:17;;;;;;;3.43;2.10;;;10.60;99.90;;;;;;5055256;28;20422;-70
2023/11/02 07:12:45;;;;;;;2.40;1.20;;;10.60;99.90;;;;;;5055519;28;20434;-71
2023/11/02 07:15:15;;;;;;;4.40;1.73;;;10.60;99.90;;;;;;5055440;28;20469;-71
2023/11/02 07:17:43;;;;;;;3.90;2.70;;;10.60;99.90;;;;;;5054869;28;20460;-71
2023/11/02 07:20:12;;;;;;;3.50;1.40;;;10.60;99.90;;;;;;5054950;28;20936;-71
2023/11/02 07:22:40;;;;;;;2.93;1.83;;;10.60;99.90;;;;;;5055470;28;20438;-71
2023/11/02 07:25:09;;;;;;;7.27;4.37;;;10.70;99.90;;;;;;5036784;28;20477;-71
2023/11/02 07:27:37;;;;;;;7.40;3.07;;;10.70;99.90;;;;;;5054027;28;20840;-71
2023/11/02 07:30:07;;;;;;;5.83;1.67;;;10.70;99.90;;;;;;5035854;28;20473;-71
2023/11/02 07:32:37;;;;;;;3.10;1.50;;;10.70;99.90;;;;;;5054006;28;20437;-71
2023/11/02 07:35:06;;;;;;;3.40;1.83;;;10.70;99.90;;;;;;5054018;28;20472;-71
2023/11/02 07:37:34;;;;;;;4.20;1.60;;;10.70;99.90;;;;;;5053803;28;20466;-71
2023/11/02 07:40:04;;;;;;;3.90;1.60;;;10.80;99.90;;;;;;5053706;28;20899;-71
2023/11/02 07:42:32;;;;;;;4.17;1.40;;;10.80;99.90;;;;;;5053813;28;20488;-71
2023/11/02 07:45:01;;;;;;;2.83;1.50;;;10.80;99.90;;;;;;5054395;28;20430;-71
2023/11/02 07:47:29;;;;;;;3.43;1.33;;;10.80;99.90;;;;;;5053855;28;20442;-71
2023/11/02 07:49:58;;;;;;;6.13;4.70;;;10.90;99.90;;;;;;5053953;28;20480;-71
2023/11/02 07:52:26;;;;;;;4.37;2.17;;;10.90;99.90;;;;;;5053920;28;20446;-70
2023/11/02 07:54:54;;;;;;;4.23;1.47;;;10.90;99.90;;;;;;5053968;28;20470;-71
2023/11/02 07:57:23;;;;;;;4.70;2.97;;;10.90;99.90;;;;;;5053750;28;20487;-71
2023/11/02 07:59:52;;;;;;;2.67;1.67;;;10.90;99.90;;;;;;5054240;28;20483;-71
2023/11/02 08:02:21;;;;;;;7.10;1.73;;;11.00;99.90;;;;;;5037290;28;20541;-71
2023/11/02 08:04:49;;;;;;;3.80;1.53;;;11.00;99.90;;;;;;5054796;28;20488;-71
2023/11/02 08:07:18;;;;;;;3.07;1.60;;;11.00;99.90;;;;;;5054406;28;20461;-71
2023/11/02 08:09:47;;;;;;;2.60;1.30;;;11.00;99.90;;;;;;5056480;28;20458;-70
2023/11/02 08:12:15;;;;;;;2.80;1.53;;;11.00;99.90;;;;;;5058058;28;20441;-70
2023/11/02 08:14:44;;;;;;;6.43;4.50;;;11.10;99.90;;;;;;5055551;28;20512;-71
2023/11/02 08:17:17;;;;;;;3.50;1.80;;;11.10;99.90;;;;;;5057310;28;20450;-71
2023/11/02 08:19:45;;;;;;;3.90;1.93;;;11.10;99.90;;;;;;5054708;28;20472;-70
2023/11/02 08:22:14;;;;;;;2.73;1.23;;;11.10;99.90;;;;;;5055491;28;21014;-70
2023/11/02 08:24:43;;;;;;;3.80;1.40;;;11.10;99.90;;;;;;5054649;28;20478;-71
2023/11/02 08:27:11;;;;;;;3.13;2.00;;;11.20;99.90;;;;;;5055239;28;20440;-71
2023/11/02 08:29:39;;;;;;;6.40;3.00;;;11.20;99.90;;;;;;5054863;28;20822;-70
2023/11/02 08:32:08;;;;;;;4.03;1.70;;;11.20;99.90;;;;;;5055699;28;20441;-70
2023/11/02 08:34:40;;;;;;;4.63;1.67;;;11.20;99.90;;;;;;5055896;28;20472;-70
2023/11/02 08:37:11;;;;;;;4.77;1.53;;;11.20;99.90;;;;;;5037444;28;20807;-70
2023/11/02 08:39:40;;;;;;;1.90;0.93;;;11.20;99.90;;;;;;5055559;28;20488;-70
2023/11/02 08:42:10;;;;;;;2.33;1.10;;;11.20;99.90;;;;;;5053334;28;20434;-70
2023/11/02 08:44:40;;;;;;;3.60;1.30;;;11.20;99.90;;;;;;5054033;28;20422;-71
2023/11/02 08:47:13;;;;;;;3.30;1.30;;;11.20;99.90;;;;;;5053946;28;20494;-71
2023/11/02 08:49:42;;;;;;;4.40;2.80;;;11.30;99.90;;;;;;5036389;28;20565;-71
2023/11/02 08:52:10;;;;;;;2.80;1.57;;;11.20;99.90;;;;;;5053318;28;20438;-70
2023/11/02 08:54:39;;;;;;;3.87;1.80;;;11.30;99.90;;;;;;5056747;28;20434;-70
2023/11/02 08:57:07;;;;;;;1.77;1.03;;;11.30;99.90;;;;;;5056652;28;20803;-71
2023/11/02 08:59:36;;;;;;;3.00;1.13;;;11.30;99.90;;;;;;5038488;28;20474;-71
2023/11/02 09:02:05;;;;;;;4.33;1.60;;;11.30;99.90;;;;;;5056775;28;20890;-70
2023/11/02 09:04:33;;;;;;;2.70;1.40;;;11.40;99.90;;;;;;5056294;28;20936;-70
2023/11/02 09:07:01;;;;;;;4.80;1.53;;;11.40;99.90;;;;;;5056442;28;20511;-70
2023/11/02 09:09:29;;;;;;;2.93;1.20;;;11.40;99.90;;;;;;5056401;28;20458;-70
2023/11/02 09:11:57;;;;;;;2.07;1.30;;;11.40;99.90;;;;;;5056713;28;20452;-71
2023/11/02 09:14:26;;;;;;;3.00;1.43;;;11.40;99.90;;;;;;5056507;28;20437;-70
2023/11/02 09:16:55;;;;;;;3.80;1.30;;;11.40;99.90;;;;;;5038114;28;21046;-70
2023/11/02 09:19:23;;;;;;;9.13;3.33;;;11.50;99.90;;;;;;5056078;28;20453;-70
2023/11/02 09:21:51;;;;;;;2.77;1.10;;;11.50;99.90;;;;;;5056052;28;20438;-71
2023/11/02 09:24:19;;;;;;;3.77;1.50;;;11.50;99.90;;;;;;5056018;28;20453;-70
2023/11/02 09:26:47;;;;;;;2.60;1.20;;;11.50;99.90;;;;;;5055940;28;20800;-70
2023/11/02 09:29:17;;;;;;;3.27;1.20;;;11.50;99.90;;;;;;5055784;28;20548;-70
2023/11/02 09:31:45;;;;;;;2.03;1.10;;;11.50;99.90;;;;;;5055759;28;20927;-71
2023/11/02 09:34:31;;;;;;;7.20;4.33;;;11.50;99.90;;;;;;5056170;28;20472;-69
2023/11/02 09:37:01;;;;;;;4.07;2.00;;;11.50;99.90;;;;;;5056441;28;20457;-70
2023/11/02 09:39:31;;;;;;;4.50;1.50;;;11.50;99.90;;;;;;5055828;28;20532;-69
2023/11/02 09:42:00;;;;;;;2.33;1.60;;;11.50;99.90;;;;;;5056190;28;20525;-70
2023/11/02 09:44:29;;;;;;;5.67;1.50;;;11.50;99.90;;;;;;5056101;28;20469;-70
2023/11/02 09:46:57;;;;;;;2.13;1.00;;;11.60;99.90;;;;;;5055777;28;20443;-70
2023/11/02 09:49:25;;;;;;;2.23;1.20;;;11.60;99.90;;;;;;5055476;28;20480;-70
2023/11/02 09:51:56;;;;;;;2.70;1.40;;;11.60;99.90;;;;;;5038150;28;20458;-70
2023/11/02 09:54:27;;;;;;;2.40;1.27;;;11.60;99.90;;;;;;5056409;28;20419;-70
2023/11/02 09:57:13;;;;;;;3.60;1.10;;;11.70;99.90;;;;;;5056026;28;20485;-69
2023/11/02 09:59:44;;;;;;;7.83;4.93;;;11.70;99.90;;;;;;5056589;28;20481;-70
2023/11/02 10:02:14;;;;;;;4.57;3.20;;;11.70;99.90;;;;;;5056326;28;20884;-70
2023/11/02 10:04:43;;;;;;;2.80;1.40;;;11.70;99.90;;;;;;5055809;28;20430;-70
2023/11/02 10:07:13;;;;;;;3.07;1.23;;;11.70;99.90;;;;;;5056157;28;20862;-70
2023/11/02 10:09:42;;;;;;;2.40;0.90;;;11.80;99.90;;;;;;5055766;28;20499;-71
2023/11/02 10:12:11;;;;;;;3.00;1.23;;;11.80;99.90;;;;;;5055787;28;20492;-71
2023/11/02 10:14:39;;;;;;;1.90;1.13;;;11.80;99.90;;;;;;5055520;28;20446;-70
2023/11/02 10:17:11;;;;;;;3.20;1.50;;;11.80;99.90;;;;;;5037475;28;20832;-70
2023/11/02 10:19:39;;;;;;;5.53;1.37;;;11.90;99.90;;;;;;5055637;28;20485;-70
2023/11/02 10:22:07;;;;;;;3.50;1.00;;;11.90;99.90;;;;;;5037703;28;20484;-70
2023/11/02 10:24:37;;;;;;;2.30;0.90;;;11.90;99.90;;;;;;5037647;28;20818;-70
2023/11/02 10:27:06;;;;;;;3.40;1.07;;;11.90;99.90;;;;;;5055187;28;20426;-70
2023/11/02 10:29:35;;;;;;;2.10;0.90;;;12.00;99.90;;;;;;5055832;28;20979;-70
2023/11/02 10:32:05;;;;;;;1.67;1.00;;;12.10;99.90;;;;;;5037181;28;20465;-71
2023/11/02 10:34:34;;;;;;;5.73;1.37;;;12.10;99.90;;;;;;5055233;28;20438;-70
2023/11/02 10:37:08;;;;;;;2.13;0.90;;;12.20;99.90;;;;;;5055159;28;20472;-71
2023/11/02 10:39:38;;;;;;;2.50;0.90;;;12.30;99.90;;;;;;5055222;28;20485;-70
2023/11/02 10:42:06;;;;;;;2.27;0.90;;;12.40;99.90;;;;;;5055222;28;20954;-70
2023/11/02 10:44:36;;;;;;;3.23;0.83;;;12.40;99.90;;;;;;5055631;28;20434;-70
2023/11/02 10:47:07;;;;;;;1.80;0.87;;;12.50;99.90;;;;;;5055641;28;20462;-70
2023/11/02 10:49:38;;;;;;;2.40;0.70;;;12.60;99.90;;;;;;5054814;28;20489;-70
2023/11/02 10:52:08;;;;;;;1.77;1.10;;;12.60;99.90;;;;;;5055161;28;21128;-70
2023/11/02 10:54:48;;;;;;;2.93;0.97;;;12.70;99.90;;;;;;5055112;28;20466;-70
2023/11/02 10:57:18;;;;;;;1.67;0.70;;;12.80;99.90;;;;;;5055034;28;20490;-70
2023/11/02 10:59:47;;;;;;;3.10;0.87;;;12.80;99.90;;;;;;5054537;28;20564;-70
2023/11/02 11:02:17;;;;;;;8.17;1.10;;;12.90;99.90;;;;;;5054136;28;20438;-71
2023/11/02 11:04:47;;;;;;;1.70;0.90;;;12.90;99.90;;;;;;5054918;28;20493;-71
2023/11/02 11:07:15;;;;;;;1.57;0.73;;;13.00;99.90;;;;;;5053982;28;20438;-70
2023/11/02 11:09:49;;;;;;;8.33;1.77;;;13.00;99.90;;;;;;5053790;28;20557;-71
2023/11/02 11:12:18;;;;;;;2.70;0.90;;;13.10;99.90;;;;;;5053943;28;20462;-70
2023/11/02 11:14:46;;;;;;;3.30;1.30;;;13.20;99.90;;;;;;5036242;28;20445;-70
2023/11/02 11:17:15;;;;;;;1.53;0.77;;;13.20;99.90;;;;;;5053524;28;20481;-71
2023/11/02 11:19:43;;;;;;;1.80;0.80;;;13.20;99.90;;;;;;5035807;28;20500;-70
2023/11/02 11:22:17;;;;;;;2.30;0.67;;;13.30;99.90;;;;;;5054309;28;20419;-70
2023/11/02 11:24:56;;;;;;;2.07;1.03;;;13.30;99.90;;;;;;5053950;28;20480;-71
2023/11/02 11:27:31;;;;;;;1.20;0.70;;;13.40;99.90;;;;;;5053722;28;20517;-70
2023/11/02 11:30:00;;;;;;;4.27;0.87;;;13.40;99.90;;;;;;5035726;28;20479;-71
2023/11/02 11:32:33;;;;;;;2.40;0.93;;;13.40;99.90;;;;;;5054288;28;20801;-71
2023/11/02 11:35:17;;;;;;;6.73;1.20;;;13.50;99.90;;;;;;5053738;28;20454;-71
2023/11/02 11:37:47;;;;;;;7.27;2.30;;;13.50;99.90;;;;;;5053442;28;20482;-71
2023/11/02 11:40:36;;;;;;;3.50;1.37;;;13.60;99.90;;;;;;5054027;28;20418;-71
2023/11/02 11:43:07;;;;;;;2.90;1.10;;;13.60;99.90;;;;;;5053601;28;20481;-71
2023/11/02 11:45:37;;;;;;;1.10;0.70;;;13.60;99.90;;;;;;5053755;28;20481;-71
2023/11/02 11:48:07;;;;;;;1.60;0.70;;;13.60;99.90;;;;;;5053263;28;20430;-71
2023/11/02 11:50:38;;;;;;;1.70;0.87;;;13.60;99.90;;;;;;5053653;28;20753;-71
2023/11/02 11:53:11;;;;;;;1.47;0.70;;;13.70;99.90;;;;;;5035424;28;20815;-71
2023/11/02 11:55:41;;;;;;;3.37;0.93;;;13.70;99.90;;;;;;5053606;28;20509;-71
2023/11/02 11:58:10;;;;;;;1.70;0.70;;;13.70;99.90;;;;;;5053452;28;20482;-71
2023/11/02 12:01:14;;;;;;;1.40;0.67;;;13.80;99.90;;;;;;5035357;28;20437;-72
2023/11/02 12:03:44;;;;;;;3.23;0.90;;;13.80;99.90;;;;;;5053478;28;20422;-71
2023/11/02 12:06:13;;;;;;;1.27;0.70;;;13.90;99.90;;;;;;5053719;28;20422;-71
2023/11/02 12:08:46;;;;;;;1.27;0.60;;;13.90;99.90;;;;;;5053104;28;20525;-71
2023/11/02 12:11:22;;;;;;;1.63;0.80;;;14.00;99.90;;;;;;5053114;28;20461;-71
2023/11/02 12:13:52;;;;;;;2.23;0.70;;;14.00;99.90;;;;;;5053347;28;20423;-71
2023/11/02 12:16:21;;;;;;;1.37;0.73;;;14.00;99.90;;;;;;5053136;28;20441;-71
2023/11/02 12:18:51;;;;;;;2.73;1.17;;;14.10;99.90;;;;;;5052953;28;20529;-71
2023/11/02 12:21:22;;;;;;;3.30;2.17;;;14.10;99.90;;;;;;5053284;28;20422;-71
2023/11/02 12:23:51;;;;;;;1.80;0.90;;;14.10;99.90;;;;;;5035101;28;20442;-71
2023/11/02 12:26:24;;;;;;;1.30;0.63;;;14.10;99.90;;;;;;5052936;28;20437;-70
2023/11/02 12:28:56;;;;;;;2.03;0.80;;;14.10;99.90;;;;;;5055547;28;20549;-71
2023/11/02 12:31:29;;;;;;;1.93;0.70;;;14.10;99.90;;;;;;5057524;28;20831;-71
2023/11/02 12:33:58;;;;;;;2.40;1.00;;;14.10;99.90;;;;;;5057396;28;20419;-71
2023/11/02 12:36:26;;;;;;;2.27;1.53;;;14.10;99.90;;;;;;5056972;28;20893;-70
2023/11/02 12:38:55;;;;;;;3.07;0.90;;;14.10;99.90;;;;;;5056743;28;20512;-71
2023/11/02 12:41:27;;;;;;;3.40;0.93;;;14.10;99.90;;;;;;5039036;28;20503;-71
2023/11/02 12:44:04;;;;;;;2.83;1.33;;;14.10;99.90;;;;;;5057290;28;20501;-70
2023/11/02 12:46:33;;;;;;;2.47;1.00;;;14.10;99.90;;;;;;5056615;28;20440;-71
2023/11/02 12:49:17;;;;;;;1.90;1.00;;;14.10;99.90;;;;;;5038555;28;20998;-70
2023/11/02 12:52:01;;;;;;;1.77;0.70;;;14.10;99.90;;;;;;5056896;28;20907;-71
2023/11/02 12:54:31;;;;;;;3.37;0.93;;;14.10;99.90;;;;;;5038707;28;20430;-71
2023/11/02 12:57:04;;;;;;;2.90;1.20;;;14.10;99.90;;;;;;5056549;28;20516;-71
2023/11/02 12:59:36;;;;;;;4.77;1.10;;;14.10;99.90;;;;;;5056447;28;20471;-71
2023/11/02 13:02:06;;;;;;;1.90;0.70;;;14.10;99.90;;;;;;5056375;28;20429;-71
2023/11/02 13:04:51;;;;;;;1.93;0.90;;;14.10;99.90;;;;;;5056305;28;20530;-71
2023/11/02 13:07:22;;;;;;;8.23;1.20;;;14.20;99.90;;;;;;5056567;28;20509;-71
2023/11/02 13:10:09;;;;;;;2.70;0.73;;;14.10;99.90;;;;;;5056062;28;20458;-71
2023/11/02 13:12:40;;;;;;;4.10;1.00;;;14.20;99.90;;;;;;5056391;28;20423;-71